createdAt,value
2018-10-11T00:01:58.197Z,101002.48
2018-10-11T00:04:27.131Z,100999.89
2018-10-11T00:06:56.024Z,101000.36
2018-10-11T00:09:24.948Z,100999.14
2018-10-11T00:11:53.815Z,100994.45
2018-10-11T00:14:22.742Z,101000.96
2018-10-11T00:16:51.610Z,101000.58
2018-10-11T00:19:20.908Z,100997.13
2018-10-11T00:21:49.797Z,100995.91
2018-10-11T00:24:18.702Z,101002.06
2018-10-11T00:26:47.708Z,100993.88
2018-10-11T00:29:16.575Z,100995.97
2018-10-11T00:31:45.464Z,100990.56
2018-10-11T00:34:14.408Z,100997.58
2018-10-11T00:36:43.405Z,100991.63
2018-10-11T00:39:12.294Z,100994.16
2018-10-11T00:41:41.191Z,101000.64
2018-10-11T00:44:10.314Z,100992.98
2018-10-11T00:46:39.217Z,100992.38
2018-10-11T00:49:08.107Z,100996.30
2018-10-11T00:51:37.010Z,100999.47
2018-10-11T00:54:05.934Z,100987.88
2018-10-11T00:56:34.830Z,100988.87
2018-10-11T00:59:03.771Z,100986.27
2018-10-11T01:01:32.682Z,101001.58
2018-10-11T01:04:01.602Z,100998.88
2018-10-11T01:06:30.589Z,100992.43
2018-10-11T01:09:00.143Z,100996.34
2018-10-11T01:11:29.082Z,100997.91
2018-10-11T01:13:57.979Z,100992.75
2018-10-11T01:16:26.864Z,100990.86
2018-10-11T01:18:55.757Z,100988.76
2018-10-11T01:21:24.643Z,100987.02
2018-10-11T01:23:53.632Z,100989.94
2018-10-11T01:26:22.407Z,100987.58
2018-10-11T01:28:52.424Z,100989.78
2018-10-11T01:31:22.629Z,100989.89
2018-10-11T01:33:52.136Z,100993.34
2018-10-11T01:36:21.340Z,100989.03
2018-10-11T01:38:53.467Z,100987.30
2018-10-11T01:41:22.320Z,100983.03
2018-10-11T01:43:51.227Z,100981.31
2018-10-11T01:46:20.174Z,100986.94
2018-10-11T01:48:49.141Z,100978.44
2018-10-11T01:51:18.058Z,100966.13
2018-10-11T01:53:46.939Z,100963.23
2018-10-11T01:56:15.907Z,100960.73
2018-10-11T01:58:44.814Z,100958.48
2018-10-11T02:01:13.753Z,100959.73
2018-10-11T02:03:42.639Z,100954.53
2018-10-11T02:06:11.791Z,100951.45
2018-10-11T02:08:40.688Z,100949.23
2018-10-11T02:11:09.600Z,100949.34
2018-10-11T02:13:38.543Z,100955.45
2018-10-11T02:16:07.445Z,100954.00
2018-10-11T02:18:36.371Z,100950.89
2018-10-11T02:21:05.388Z,100951.25
2018-10-11T02:23:34.307Z,100949.84
2018-10-11T02:26:03.216Z,100941.95
2018-10-11T02:28:37.715Z,100946.94
2018-10-11T02:31:12.196Z,100947.59
2018-10-11T02:33:41.132Z,100949.05
2018-10-11T02:36:10.042Z,100953.95
2018-10-11T02:38:38.968Z,100953.59
2018-10-11T02:41:07.876Z,100949.05
2018-10-11T02:43:36.806Z,100942.84
2018-10-11T02:46:05.725Z,100947.95
2018-10-11T02:48:34.645Z,100948.39
2018-10-11T02:51:03.530Z,100946.95
2018-10-11T02:53:32.425Z,100946.95
2018-10-11T02:56:01.370Z,100953.36
2018-10-11T02:58:41.546Z,100950.55
2018-10-11T03:01:10.460Z,100938.04
2018-10-11T03:03:39.393Z,100933.00
2018-10-11T03:06:08.329Z,100936.34
2018-10-11T03:08:37.312Z,100936.24
2018-10-11T03:11:06.286Z,100930.19
2018-10-11T03:13:35.184Z,100929.49
2018-10-11T03:16:04.104Z,100933.54
2018-10-11T03:18:32.984Z,100928.34
2018-10-11T03:21:01.894Z,100926.69
2018-10-11T03:23:30.796Z,100927.65
2018-10-11T03:25:59.824Z,100921.44
2018-10-11T03:28:28.722Z,100919.00
2018-10-11T03:30:57.616Z,100925.75
2018-10-11T03:33:26.510Z,100921.65
2018-10-11T03:35:55.406Z,100923.34
2018-10-11T03:38:24.330Z,100918.53
2018-10-11T03:40:53.267Z,100912.74
2018-10-11T03:43:22.194Z,100918.80
2018-10-11T03:45:51.133Z,100918.30
2018-10-11T03:48:20.035Z,100913.28
2018-10-11T03:50:54.680Z,100908.09
2018-10-11T03:53:23.638Z,100908.24
2018-10-11T03:55:52.530Z,100912.30
2018-10-11T03:58:21.434Z,100910.38
2018-10-11T04:00:50.350Z,100907.13
2018-10-11T04:03:19.310Z,100906.14
2018-10-11T04:05:48.284Z,100907.49
2018-10-11T04:08:17.171Z,100897.34
2018-10-11T04:10:46.112Z,100903.33
2018-10-11T04:13:14.967Z,100899.34
2018-10-11T04:15:44.124Z,100897.23
2018-10-11T04:18:12.983Z,100896.92
2018-10-11T04:20:41.912Z,100889.82
2018-10-11T04:23:14.995Z,100894.52
2018-10-11T04:25:43.903Z,100896.12
2018-10-11T04:28:14.944Z,100890.30
2018-10-11T04:30:43.899Z,100892.64
2018-10-11T04:33:12.809Z,100889.84
2018-10-11T04:35:41.728Z,100882.72
2018-10-11T04:38:11.359Z,100887.84
2018-10-11T04:40:41.055Z,100888.23
2018-10-11T04:43:10.092Z,100893.03
2018-10-11T04:45:39.067Z,100899.79
2018-10-11T04:48:08.143Z,100895.92
2018-10-11T04:50:37.116Z,100900.04
2018-10-11T04:53:06.007Z,100903.78
2018-10-11T04:55:34.934Z,100907.02
2018-10-11T04:58:03.839Z,100914.70
2018-10-11T05:00:32.747Z,100916.04
2018-10-11T05:03:01.683Z,100919.25
2018-10-11T05:05:30.670Z,100913.04
2018-10-11T05:07:59.523Z,100912.66
2018-10-11T05:10:28.550Z,100915.32
2018-10-11T05:12:57.478Z,100918.77
2018-10-11T05:15:27.067Z,100910.63
2018-10-11T05:17:56.026Z,100917.67
2018-10-11T05:20:24.973Z,100918.80
2018-10-11T05:22:53.912Z,100917.90
2018-10-11T05:25:22.985Z,100924.31
2018-10-11T05:27:51.897Z,100925.66
2018-10-11T05:30:20.855Z,100923.69
2018-10-11T05:32:49.769Z,100893.63
2018-10-11T05:35:18.644Z,100912.56
2018-10-11T05:37:47.534Z,100922.20
2018-10-11T05:40:16.454Z,100924.55
2018-10-11T05:42:45.455Z,100926.87
2018-10-11T05:45:17.933Z,100935.13
2018-10-11T05:47:47.331Z,100938.34
2018-10-11T05:50:16.686Z,100939.69
2018-10-11T05:52:46.049Z,100941.06
2018-10-11T05:55:15.347Z,100938.47
2018-10-11T05:57:44.384Z,100942.53
2018-10-11T06:00:13.636Z,100931.88
2018-10-11T06:02:54.537Z,100934.50
2018-10-11T06:05:23.471Z,100937.44
2018-10-11T06:07:52.484Z,100937.97
2018-10-11T06:10:28.463Z,100945.48
2018-10-11T06:12:57.385Z,100946.32
2018-10-11T06:15:26.301Z,100948.45
2018-10-11T06:17:55.216Z,100952.09
2018-10-11T06:20:24.093Z,100951.25
2018-10-11T06:22:53.011Z,100954.81
2018-10-11T06:25:21.946Z,100963.82
2018-10-11T06:27:50.855Z,100962.08
2018-10-11T06:30:20.014Z,100961.45
2018-10-11T06:32:48.921Z,100952.70
2018-10-11T06:35:17.879Z,100954.33
2018-10-11T06:37:46.831Z,100955.94
2018-10-11T06:40:15.711Z,100960.26
2018-10-11T06:42:44.958Z,100966.81
2018-10-11T06:45:15.316Z,100964.84
2018-10-11T06:47:46.437Z,100962.98
2018-10-11T06:50:15.461Z,100961.63
2018-10-11T06:52:44.331Z,100956.22
2018-10-11T06:55:13.282Z,100960.78
2018-10-11T06:57:42.323Z,100963.61
2018-10-11T07:00:11.205Z,100966.32
2018-10-11T07:02:40.125Z,100962.87
2018-10-11T07:05:08.686Z,100967.91
2018-10-11T07:07:37.789Z,100971.63
2018-10-11T07:10:06.807Z,100976.92
2018-10-11T07:12:35.677Z,100970.61
2018-10-11T07:15:05.006Z,100974.69
2018-10-11T07:17:34.205Z,100972.60
2018-10-11T07:20:03.530Z,100980.85
2018-10-11T07:22:33.104Z,100974.81
2018-10-11T07:25:02.432Z,100986.89
2018-10-11T07:27:31.687Z,100989.11
2018-10-11T07:30:00.973Z,100986.28
2018-10-11T07:32:30.343Z,100980.86
2018-10-11T07:34:59.777Z,100978.53
2018-10-11T07:37:29.070Z,100993.17
2018-10-11T07:39:58.522Z,100998.86
2018-10-11T07:42:27.840Z,100986.66
2018-10-11T07:44:57.070Z,100995.88
2018-10-11T07:47:27.597Z,101002.55
2018-10-11T07:49:56.840Z,101011.06
2018-10-11T07:52:26.060Z,101007.34
2018-10-11T07:54:55.238Z,101001.19
2018-10-11T07:57:24.582Z,101021.28
2018-10-11T07:59:53.890Z,101011.29
2018-10-11T08:02:23.112Z,101017.56
2018-10-11T08:04:52.412Z,101021.74
2018-10-11T08:07:21.770Z,101018.18
2018-10-11T08:09:50.874Z,101031.97
2018-10-11T08:12:20.124Z,101040.20
2018-10-11T08:14:49.448Z,101053.29
2018-10-11T08:17:19.093Z,101049.97
2018-10-11T08:19:48.186Z,101048.96
2018-10-11T08:22:18.554Z,101046.24
2018-10-11T08:24:47.858Z,101044.26
2018-10-11T08:27:18.326Z,101036.39
2018-10-11T08:29:47.562Z,101023.47
2018-10-11T08:32:17.043Z,101024.81
2018-10-11T08:34:46.400Z,101021.48
2018-10-11T08:37:15.881Z,101020.59
2018-10-11T08:39:45.188Z,101023.31
2018-10-11T08:42:15.465Z,101029.46
2018-10-11T08:44:44.727Z,101037.23
2018-10-11T08:47:14.134Z,101036.75
2018-10-11T08:49:43.464Z,101028.16
2018-10-11T08:52:14.865Z,101025.69
2018-10-11T08:54:47.597Z,101018.17
2018-10-11T08:57:16.926Z,101021.12
2018-10-11T08:59:46.423Z,101019.53
2018-10-11T09:02:15.655Z,101014.96
2018-10-11T09:04:45.058Z,101023.09
2018-10-11T09:07:15.010Z,101022.74
2018-10-11T09:09:45.451Z,101023.37
2018-10-11T09:12:14.418Z,101022.63
2018-10-11T09:14:43.447Z,101028.05
2018-10-11T09:17:12.366Z,101025.34
2018-10-11T09:19:41.252Z,101030.99
2018-10-11T09:22:10.216Z,101029.02
2018-10-11T09:24:39.164Z,101029.26
2018-10-11T09:27:08.052Z,101018.80
2018-10-11T09:29:38.002Z,101015.09
2018-10-11T09:32:06.990Z,101014.86
2018-10-11T09:34:35.942Z,101000.69
2018-10-11T09:37:04.856Z,100999.21
2018-10-11T09:39:33.769Z,100998.86
2018-10-11T09:42:02.637Z,100997.86
2018-10-11T09:44:31.516Z,101004.13
2018-10-11T09:47:00.387Z,101003.67
2018-10-11T09:49:29.311Z,100992.94
2018-10-11T09:51:58.270Z,100985.66
2018-10-11T09:54:27.252Z,100977.64
2018-10-11T09:57:21.788Z,100968.77
2018-10-11T09:59:50.724Z,100982.33
2018-10-11T10:02:19.956Z,100989.72
2018-10-11T10:04:50.084Z,100978.28
2018-10-11T10:07:19.027Z,100971.11
2018-10-11T10:09:48.481Z,100961.47
2018-10-11T10:12:17.826Z,100951.34
2018-10-11T10:14:47.444Z,100947.28
2018-10-11T10:17:16.598Z,100948.25
2018-10-11T10:19:46.784Z,100951.59
2018-10-11T10:22:18.434Z,100954.91
2018-10-11T10:24:47.287Z,100950.70
2018-10-11T10:27:16.418Z,100955.37
2018-10-11T10:29:45.164Z,100954.20
2018-10-11T10:32:14.072Z,100963.08
2018-10-11T10:34:42.963Z,100955.64
2018-10-11T10:37:11.912Z,100956.61
2018-10-11T10:39:40.814Z,100964.39
2018-10-11T10:42:09.728Z,100963.59
2018-10-11T10:44:38.628Z,100959.39
2018-10-11T10:47:07.555Z,100961.52
2018-10-11T10:49:36.496Z,100955.26
2018-10-11T10:52:05.380Z,100954.91
2018-10-11T10:54:35.376Z,100955.00
2018-10-11T10:57:04.851Z,100951.94
2018-10-11T10:59:33.741Z,100950.67
2018-10-11T11:02:02.728Z,100945.59
2018-10-11T11:04:31.670Z,100949.41
2018-10-11T11:07:00.562Z,100948.77
2018-10-11T11:09:29.439Z,100951.73
2018-10-11T11:11:58.343Z,100956.21
2018-10-11T11:14:32.621Z,100947.84
2018-10-11T11:17:03.648Z,100959.91
2018-10-11T11:19:38.656Z,100952.98
2018-10-11T11:22:07.669Z,100950.47
2018-10-11T11:24:36.501Z,100951.62
2018-10-11T11:27:05.421Z,100941.34
2018-10-11T11:29:34.292Z,100945.63
2018-10-11T11:32:03.158Z,100945.72
2018-10-11T11:34:32.081Z,100938.20
2018-10-11T11:37:01.052Z,100931.03
2018-10-11T11:39:31.071Z,100933.82
2018-10-11T11:42:02.039Z,100928.25
2018-10-11T11:44:30.992Z,100925.06
2018-10-11T11:46:59.893Z,100917.88
2018-10-11T11:49:28.869Z,100923.08
2018-10-11T11:51:57.803Z,100929.23
2018-10-11T11:54:32.159Z,100916.09
2018-10-11T11:57:01.225Z,100918.17
2018-10-11T11:59:30.133Z,100911.27
2018-10-11T12:01:59.216Z,100907.38
2018-10-11T12:04:28.116Z,100900.59
2018-10-11T12:06:57.063Z,100899.25
2018-10-11T12:09:26.046Z,100901.84
2018-10-11T12:11:55.033Z,100898.03
2018-10-11T12:14:23.960Z,100897.38
2018-10-11T12:16:52.879Z,100895.78
2018-10-11T12:19:21.801Z,100894.59
2018-10-11T12:21:50.691Z,100897.18
2018-10-11T12:24:19.666Z,100898.50
2018-10-11T12:26:48.674Z,100900.20
2018-10-11T12:29:17.752Z,100904.13
2018-10-11T12:31:46.679Z,100902.00
2018-10-11T12:34:15.642Z,100902.20
2018-10-11T12:36:44.540Z,100900.63
2018-10-11T12:39:13.436Z,100901.13
2018-10-11T12:41:42.338Z,100903.06
2018-10-11T12:44:11.395Z,100907.23
2018-10-11T12:46:42.656Z,100902.16
2018-10-11T12:49:09.310Z,100903.27
2018-10-11T12:51:38.202Z,100896.61
2018-10-11T12:54:07.560Z,100896.39
2018-10-11T12:56:36.551Z,100899.27
2018-10-11T12:59:05.474Z,100894.27
2018-10-11T13:01:34.440Z,100897.75
2018-10-11T13:04:03.342Z,100897.69
2018-10-11T13:06:32.284Z,100905.03
2018-10-11T13:09:01.296Z,100899.66
2018-10-11T13:11:30.186Z,100903.83
2018-10-11T13:13:59.142Z,100895.91
2018-10-11T13:16:34.419Z,100890.27
2018-10-11T13:19:03.448Z,100894.07
2018-10-11T13:21:32.355Z,100884.43
2018-10-11T13:24:01.296Z,100880.73
2018-10-11T13:26:31.262Z,100876.28
2018-10-11T13:29:00.245Z,100880.05
2018-10-11T13:31:30.085Z,100887.65
2018-10-11T13:33:59.018Z,100878.88
2018-10-11T13:36:27.968Z,100882.44
2018-10-11T13:38:56.869Z,100886.16
2018-10-11T13:41:25.867Z,100880.87
2018-10-11T13:43:54.740Z,100879.31
2018-10-11T13:46:23.732Z,100877.39
2018-10-11T13:48:52.800Z,100877.39
2018-10-11T13:51:21.721Z,100872.98
2018-10-11T13:53:55.479Z,100869.41
2018-10-11T13:56:19.545Z,100874.30
2018-10-11T13:58:48.463Z,100872.77
2018-10-11T14:01:17.443Z,100883.23
2018-10-11T14:03:46.745Z,100875.95
2018-10-11T14:06:16.464Z,100876.42
2018-10-11T14:08:45.401Z,100880.59
2018-10-11T14:11:14.493Z,100875.86
2018-10-11T14:13:43.503Z,100872.88
2018-10-11T14:16:12.442Z,100873.17
2018-10-11T14:18:41.348Z,100865.17
2018-10-11T14:21:10.337Z,100871.14
2018-10-11T14:23:39.368Z,100873.84
2018-10-11T14:26:08.306Z,100877.50
2018-10-11T14:28:37.204Z,100872.41
2018-10-11T14:31:06.077Z,100872.34
2018-10-11T14:33:35.128Z,100869.16
2018-10-11T14:36:04.078Z,100866.50
2018-10-11T14:38:33.048Z,100868.75
2018-10-11T14:41:02.004Z,100872.52
2018-10-11T14:43:30.976Z,100870.53
2018-10-11T14:45:59.899Z,100867.94
2018-10-11T14:48:28.804Z,100872.19
2018-10-11T14:50:57.920Z,100869.48
2018-10-11T14:53:26.782Z,100870.38
2018-10-11T14:55:55.798Z,100874.55
2018-10-11T14:58:30.182Z,100869.89
2018-10-11T15:01:04.801Z,100866.79
2018-10-11T15:03:33.734Z,100869.75
2018-10-11T15:06:02.672Z,100874.02
2018-10-11T15:08:31.598Z,100869.25
2018-10-11T15:11:01.755Z,100878.41
2018-10-11T15:13:30.644Z,100880.27
2018-10-11T15:15:59.658Z,100868.16
2018-10-11T15:18:28.448Z,100872.25
2018-10-11T15:20:57.363Z,100865.49
2018-10-11T15:23:26.342Z,100874.14
2018-10-11T15:25:55.353Z,100872.78
2018-10-11T15:28:24.401Z,100868.95
2018-10-11T15:30:53.341Z,100876.48
2018-10-11T15:33:22.220Z,100879.19
2018-10-11T15:35:51.123Z,100879.77
2018-10-11T15:38:20.030Z,100883.23
2018-10-11T15:40:48.915Z,100886.42
2018-10-11T15:43:17.951Z,100885.53
2018-10-11T15:45:46.875Z,100895.57
2018-10-11T15:48:15.772Z,100893.98
2018-10-11T15:50:44.780Z,100892.10
2018-10-11T15:53:13.745Z,100894.16
2018-10-11T15:55:42.668Z,100890.19
2018-10-11T15:58:11.572Z,100892.80
2018-10-11T16:00:40.455Z,100890.22
2018-10-11T16:03:09.339Z,100892.06
2018-10-11T16:05:38.311Z,100897.67
2018-10-11T16:08:07.229Z,100900.70
2018-10-11T16:10:36.107Z,100895.20
2018-10-11T16:13:05.040Z,100903.08
2018-10-11T16:15:33.956Z,100901.73
2018-10-11T16:18:02.876Z,100897.64
2018-10-11T16:20:31.735Z,100903.19
2018-10-11T16:23:00.599Z,100904.64
2018-10-11T16:25:29.490Z,100903.64
2018-10-11T16:27:58.361Z,100901.58
2018-10-11T16:30:27.363Z,100896.32
2018-10-11T16:32:56.236Z,100901.64
2018-10-11T16:35:25.142Z,100905.59
2018-10-11T16:37:54.097Z,100900.84
2018-10-11T16:40:22.952Z,100903.61
2018-10-11T16:42:51.917Z,100915.46
2018-10-11T16:45:20.832Z,100917.53
2018-10-11T16:47:49.799Z,100916.08
2018-10-11T16:50:18.856Z,100920.26
2018-10-11T16:52:47.861Z,100921.52
2018-10-11T16:55:16.919Z,100930.44
2018-10-11T16:57:45.966Z,100941.84
2018-10-11T17:00:15.015Z,100949.17
2018-10-11T17:02:44.052Z,100952.55
2018-10-11T17:05:12.932Z,100961.50
2018-10-11T17:07:41.801Z,100958.45
2018-10-11T17:10:11.747Z,100967.80
2018-10-11T17:12:40.694Z,100970.09
2018-10-11T17:15:09.692Z,100968.59
2018-10-11T17:17:39.650Z,100978.33
2018-10-11T17:20:08.522Z,100982.94
2018-10-11T17:22:37.761Z,100980.86
2018-10-11T17:25:06.680Z,100984.64
2018-10-11T17:27:35.698Z,100982.80
2018-10-11T17:30:04.612Z,100980.80
2018-10-11T17:32:33.497Z,100985.31
2018-10-11T17:35:02.412Z,100996.66
2018-10-11T17:37:31.300Z,100992.72
2018-10-11T17:40:00.197Z,100990.19
2018-10-11T17:42:29.236Z,100997.08
2018-10-11T17:44:58.139Z,101002.16
2018-10-11T17:47:27.067Z,101005.39
2018-10-11T17:49:56.030Z,101002.03
2018-10-11T17:52:24.963Z,101008.03
2018-10-11T17:54:57.783Z,101012.11
2018-10-11T17:57:27.269Z,101012.97
2018-10-11T17:59:56.502Z,101020.05
2018-10-11T18:02:25.404Z,101018.05
2018-10-11T18:04:54.427Z,101021.92
2018-10-11T18:07:29.589Z,101013.11
2018-10-11T18:09:58.533Z,101006.30
2018-10-11T18:12:27.399Z,101000.41
2018-10-11T18:14:56.270Z,100996.97
2018-10-11T18:17:25.182Z,100999.52
2018-10-11T18:19:54.078Z,101000.95
2018-10-11T18:22:23.008Z,100997.30
2018-10-11T18:24:51.938Z,101004.31
2018-10-11T18:27:21.064Z,100998.16
2018-10-11T18:29:49.944Z,101010.13
2018-10-11T18:32:19.038Z,101014.76
2018-10-11T18:34:47.928Z,101009.11
2018-10-11T18:37:16.838Z,101010.60
2018-10-11T18:39:45.753Z,101005.08
2018-10-11T18:42:14.633Z,101009.09
2018-10-11T18:44:43.537Z,101014.86
2018-10-11T18:47:12.414Z,101006.83
2018-10-11T18:49:41.321Z,101003.39
2018-10-11T18:52:10.369Z,101001.66
2018-10-11T18:54:39.286Z,100993.07
2018-10-11T18:57:08.246Z,101002.30
2018-10-11T18:59:37.231Z,100997.49
2018-10-11T19:02:06.107Z,100995.87
2018-10-11T19:04:35.147Z,100995.41
2018-10-11T19:07:04.048Z,100999.87
2018-10-11T19:09:33.372Z,101004.48
2018-10-11T19:12:02.279Z,101013.37
2018-10-11T19:14:31.187Z,101006.73
2018-10-11T19:17:01.179Z,101002.03
2018-10-11T19:19:30.133Z,100991.22
2018-10-11T19:22:02.578Z,100995.87
2018-10-11T19:24:31.480Z,100993.20
2018-10-11T19:27:00.874Z,100983.94
2018-10-11T19:29:30.925Z,100962.77
2018-10-11T19:32:00.812Z,100992.05
2018-10-11T19:34:29.715Z,100990.88
2018-10-11T19:36:59.507Z,100987.44
2018-10-11T19:39:28.456Z,100991.62
2018-10-11T19:41:57.292Z,100991.03
2018-10-11T19:44:26.178Z,100979.51
2018-10-11T19:46:55.116Z,100987.09
2018-10-11T19:49:25.110Z,100981.03
2018-10-11T19:51:54.050Z,100989.37
2018-10-11T19:54:23.086Z,100992.58
2018-10-11T19:56:52.380Z,100988.92
2018-10-11T19:59:21.351Z,100983.16
2018-10-11T20:01:50.330Z,100982.44
2018-10-11T20:04:19.193Z,100976.53
2018-10-11T20:06:48.206Z,100974.11
2018-10-11T20:09:17.106Z,100969.39
2018-10-11T20:11:46.046Z,100978.38
2018-10-11T20:14:14.924Z,100976.00
2018-10-11T20:16:43.910Z,100968.39
2018-10-11T20:19:12.841Z,100972.59
2018-10-11T20:21:41.774Z,100979.69
2018-10-11T20:24:10.677Z,100979.98
2018-10-11T20:26:39.695Z,100985.51
2018-10-11T20:29:08.615Z,100987.58
2018-10-11T20:31:37.500Z,100976.91
2018-10-11T20:34:06.666Z,100973.39
2018-10-11T20:36:35.656Z,100975.02
2018-10-11T20:39:05.692Z,100980.37
2018-10-11T20:41:34.576Z,100977.53
2018-10-11T20:44:10.273Z,100987.05
2018-10-11T20:46:39.186Z,100985.08
2018-10-11T20:49:08.080Z,100980.76
2018-10-11T20:51:37.123Z,100990.02
2018-10-11T20:54:05.950Z,100999.62
2018-10-11T20:56:34.847Z,100996.13
2018-10-11T20:59:03.795Z,100997.23
2018-10-11T21:01:32.699Z,100994.97
2018-10-11T21:04:01.563Z,100995.53
2018-10-11T21:06:30.500Z,100989.95
2018-10-11T21:09:00.076Z,100986.17
2018-10-11T21:11:28.987Z,100990.89
2018-10-11T21:13:58.007Z,100982.35
2018-10-11T21:16:26.870Z,100983.03
2018-10-11T21:19:01.325Z,100984.65
2018-10-11T21:21:30.558Z,100991.02
2018-10-11T21:23:59.687Z,100989.61
2018-10-11T21:26:28.848Z,100988.77
2018-10-11T21:28:57.800Z,100992.97
2018-10-11T21:31:26.757Z,100998.30
2018-10-11T21:33:55.935Z,100986.06
2018-10-11T21:36:24.919Z,100987.71
2018-10-11T21:38:53.836Z,100991.54
2018-10-11T21:41:22.786Z,100991.88
2018-10-11T21:43:51.650Z,100995.49
2018-10-11T21:46:20.767Z,101007.38
2018-10-11T21:48:49.689Z,101005.65
2018-10-11T21:51:18.636Z,101010.11
2018-10-11T21:53:47.613Z,101039.64
2018-10-11T21:56:16.600Z,101037.17
2018-10-11T21:58:45.574Z,101056.46
2018-10-11T22:01:21.434Z,101055.14
2018-10-11T22:03:50.598Z,101051.39
2018-10-11T22:06:19.558Z,101046.30
2018-10-11T22:08:49.433Z,101044.13
2018-10-11T22:11:18.394Z,101039.92
2018-10-11T22:13:47.283Z,101049.02
2018-10-11T22:16:16.255Z,101050.25
2018-10-11T22:18:47.184Z,101046.14
2018-10-11T22:21:16.154Z,101053.48
2018-10-11T22:23:45.047Z,101052.50
2018-10-11T22:26:13.968Z,101046.94
2018-10-11T22:28:42.815Z,101042.39
2018-10-11T22:31:13.143Z,101054.33
2018-10-11T22:33:42.879Z,101062.36
2018-10-11T22:36:12.892Z,101065.80
2018-10-11T22:38:42.357Z,101079.56
2018-10-11T22:41:12.090Z,101104.50
2018-10-11T22:43:41.690Z,101113.67
2018-10-11T22:46:10.966Z,101121.45
2018-10-11T22:48:39.858Z,101130.97
2018-10-11T22:51:09.873Z,101135.70
2018-10-11T22:53:38.746Z,101143.30
2018-10-11T22:56:07.651Z,101161.90
2018-10-11T22:58:36.698Z,101155.75
2018-10-11T23:01:05.736Z,101154.81
2018-10-11T23:03:34.818Z,101152.93
2018-10-11T23:06:03.767Z,101148.35
2018-10-11T23:08:32.719Z,101141.31
2018-10-11T23:11:01.688Z,101132.17
2018-10-11T23:13:30.624Z,101119.41
2018-10-11T23:15:59.526Z,101089.14
2018-10-11T23:18:28.494Z,101086.98
2018-10-11T23:20:57.411Z,101069.62
2018-10-11T23:23:26.259Z,101043.88
2018-10-11T23:25:55.110Z,101054.56
2018-10-11T23:28:23.969Z,101070.61
2018-10-11T23:30:52.908Z,101069.73
2018-10-11T23:33:21.785Z,101063.94
2018-10-11T23:35:50.703Z,101060.66
2018-10-11T23:38:19.606Z,101054.58
2018-10-11T23:40:48.557Z,101055.61
2018-10-11T23:43:17.485Z,101073.55
2018-10-11T23:45:46.373Z,101073.97
2018-10-11T23:48:15.220Z,101085.94
2018-10-11T23:50:44.110Z,101081.83
2018-10-11T23:53:13.187Z,101087.63
2018-10-11T23:55:42.018Z,101092.45
2018-10-11T23:58:10.900Z,101096.52
